Time;durP1;ratioP1;P1;durP2;ratioP2;P2;SDS_P1;SDS_P2;PMS_P1;PMS_P2;Temp;Humidity;BMP_temperature;BMP_pressure;BME280_temperature;BME280_humidity;BME280_pressure;Samples;Min_cycle;Max_cycle;Signal;HPM_P1;HPM_P2
2023/04/09 00:00:11;;;;;;;4.60;3.00;;;18.80;41.50;;;;;;5094084;28;20182;-71
2023/04/09 00:02:38;;;;;;;6.63;2.58;;;18.80;41.60;;;;;;5094252;28;20315;-71
2023/04/09 00:05:06;;;;;;;3.65;2.60;;;18.80;41.60;;;;;;5094103;28;20228;-70
2023/04/09 00:07:35;;;;;;;4.85;3.30;;;18.70;41.50;;;;;;5094060;28;20218;-71
2023/04/09 00:10:02;;;;;;;5.30;2.90;;;18.70;41.50;;;;;;5093559;28;20262;-71
2023/04/09 00:12:29;;;;;;;4.28;3.15;;;18.70;41.60;;;;;;5093997;28;20253;-71
2023/04/09 00:14:56;;;;;;;4.70;3.03;;;18.70;41.60;;;;;;5093458;28;20229;-71
2023/04/09 00:17:23;;;;;;;4.95;3.28;;;18.70;41.60;;;;;;5093688;28;20265;-70
2023/04/09 00:19:50;;;;;;;4.28;3.03;;;18.70;41.60;;;;;;5093673;28;20186;-71
2023/04/09 00:22:17;;;;;;;6.00;3.20;;;18.70;41.70;;;;;;5092181;28;20249;-71
2023/04/09 00:24:45;;;;;;;5.45;3.47;;;18.70;41.70;;;;;;5093233;28;20761;-71
2023/04/09 00:27:12;;;;;;;4.85;3.08;;;18.70;41.70;;;;;;5093668;28;20254;-71
2023/04/09 00:29:39;;;;;;;5.15;3.13;;;18.60;41.70;;;;;;5093588;28;20477;-71
2023/04/09 00:32:07;;;;;;;4.20;3.15;;;18.70;41.70;;;;;;5092205;28;20214;-71
2023/04/09 00:34:34;;;;;;;7.88;3.00;;;18.80;41.90;;;;;;5093114;28;20226;-71
2023/04/09 00:37:01;;;;;;;4.75;3.03;;;18.70;41.80;;;;;;5093431;28;20264;-71
2023/04/09 00:39:28;;;;;;;5.38;2.97;;;18.70;41.90;;;;;;5092241;28;20226;-71
2023/04/09 00:41:58;;;;;;;5.75;2.92;;;18.70;41.90;;;;;;5093046;28;20214;-71
2023/04/09 00:44:25;;;;;;;5.28;3.10;;;18.80;42.00;;;;;;5093330;28;20186;-71
2023/04/09 00:46:52;;;;;;;6.95;3.38;;;18.70;42.00;;;;;;5091056;28;20253;-71
2023/04/09 00:49:20;;;;;;;3.58;3.00;;;18.70;42.00;;;;;;5091885;28;20225;-71
2023/04/09 00:51:48;;;;;;;7.00;3.42;;;18.70;42.00;;;;;;5092843;28;20245;-71
2023/04/09 00:54:15;;;;;;;6.03;3.25;;;18.70;42.00;;;;;;5092841;28;20628;-71
2023/04/09 00:56:42;;;;;;;7.03;3.50;;;18.70;42.00;;;;;;5092953;28;20245;-71
2023/04/09 00:59:11;;;;;;;3.80;2.78;;;18.70;42.00;;;;;;5092791;28;20233;-71
2023/04/09 01:01:38;;;;;;;5.38;3.55;;;18.70;42.00;;;;;;5092905;28;20245;-71
2023/04/09 01:04:05;;;;;;;5.85;3.40;;;18.60;42.00;;;;;;5092980;28;20270;-71
2023/04/09 01:06:39;;;;;;;5.80;2.95;;;18.70;42.00;;;;;;5092886;28;20193;-71
2023/04/09 01:09:14;;;;;;;4.82;3.20;;;18.60;42.00;;;;;;5089652;28;20225;-71
2023/04/09 01:11:46;;;;;;;5.30;3.28;;;18.60;42.00;;;;;;5074010;28;20214;-71
2023/04/09 01:14:24;;;;;;;5.72;3.05;;;18.60;42.00;;;;;;5072478;28;20215;-71
2023/04/09 01:16:57;;;;;;;5.05;3.13;;;18.60;42.00;;;;;;5072417;28;20256;-71
2023/04/09 01:19:41;;;;;;;4.70;3.00;;;18.60;42.10;;;;;;5072131;28;20222;-71
2023/04/09 01:22:23;;;;;;;4.85;3.10;;;18.60;42.10;;;;;;5072102;28;20221;-71
2023/04/09 01:25:04;;;;;;;5.68;3.50;;;18.60;42.10;;;;;;5072030;28;20265;-71
2023/04/09 01:27:39;;;;;;;5.55;3.20;;;18.60;42.20;;;;;;5072175;28;20214;-71
2023/04/09 01:30:09;;;;;;;4.68;3.05;;;18.60;42.20;;;;;;5072349;28;20190;-71
2023/04/09 01:32:38;;;;;;;4.18;2.92;;;18.60;42.20;;;;;;5072329;28;20242;-71
2023/04/09 01:35:08;;;;;;;4.60;2.90;;;18.60;42.20;;;;;;5072316;28;20256;-71
2023/04/09 01:37:36;;;;;;;6.68;2.95;;;18.50;42.20;;;;;;5072291;28;20269;-71
2023/04/09 01:40:04;;;;;;;5.40;3.40;;;18.60;42.30;;;;;;5072224;28;20221;-71
2023/04/09 01:42:32;;;;;;;6.07;3.47;;;18.60;42.20;;;;;;5072297;28;20225;-71
2023/04/09 01:45:01;;;;;;;4.78;2.80;;;18.60;42.30;;;;;;5072185;28;20183;-71
2023/04/09 01:47:30;;;;;;;4.03;3.10;;;18.60;42.30;;;;;;5072178;28;20284;-71
2023/04/09 01:49:58;;;;;;;5.03;3.10;;;18.60;42.30;;;;;;5071824;28;20632;-71
2023/04/09 01:52:25;;;;;;;4.43;2.90;;;18.60;42.30;;;;;;5071969;28;20246;-71
2023/04/09 01:54:52;;;;;;;5.22;2.83;;;18.50;42.30;;;;;;5072154;28;20251;-71
2023/04/09 01:57:19;;;;;;;5.03;3.13;;;18.60;42.40;;;;;;5072066;28;20293;-71
2023/04/09 01:59:46;;;;;;;3.75;2.97;;;18.50;42.30;;;;;;5074993;28;20191;-71
2023/04/09 02:02:20;;;;;;;6.20;3.60;;;18.60;42.40;;;;;;5076210;28;20264;-71
2023/04/09 02:04:51;;;;;;;4.60;3.05;;;18.50;42.30;;;;;;5058550;28;20567;-71
2023/04/09 02:07:25;;;;;;;4.18;2.75;;;18.50;42.40;;;;;;5076398;28;20257;-70
2023/04/09 02:09:54;;;;;;;5.97;2.80;;;18.50;42.30;;;;;;5075577;28;20618;-71
2023/04/09 02:12:24;;;;;;;4.68;2.80;;;18.60;42.50;;;;;;5075623;28;20750;-71
2023/04/09 02:14:53;;;;;;;4.30;2.78;;;18.50;42.40;;;;;;5075571;28;20187;-71
2023/04/09 02:17:20;;;;;;;3.88;2.88;;;18.50;42.30;;;;;;5075441;28;20261;-71
2023/04/09 02:19:49;;;;;;;4.65;2.83;;;18.50;42.40;;;;;;5075767;28;20300;-71
2023/04/09 02:22:17;;;;;;;4.55;2.95;;;18.50;42.40;;;;;;5075323;28;20219;-71
2023/04/09 02:24:45;;;;;;;3.45;2.67;;;18.50;42.40;;;;;;5075290;28;20583;-71
2023/04/09 02:27:12;;;;;;;4.00;2.60;;;18.50;43.10;;;;;;5075454;28;20253;-71
2023/04/09 02:29:40;;;;;;;5.03;3.08;;;18.50;42.40;;;;;;5075732;28;20684;-71
2023/04/09 02:32:08;;;;;;;5.65;3.10;;;18.50;42.40;;;;;;5075644;28;20222;-71
2023/04/09 02:34:35;;;;;;;4.10;3.00;;;18.60;42.50;;;;;;5075379;28;20624;-71
2023/04/09 02:37:03;;;;;;;3.97;2.70;;;18.50;42.40;;;;;;5075443;28;20260;-71
2023/04/09 02:39:30;;;;;;;3.40;2.72;;;18.50;42.40;;;;;;5075061;28;20222;-71
2023/04/09 02:41:57;;;;;;;3.78;3.03;;;18.60;42.50;;;;;;5075377;28;20274;-71
2023/04/09 02:44:24;;;;;;;4.97;2.83;;;18.50;42.40;;;;;;5074928;28;20667;-71
2023/04/09 02:46:52;;;;;;;4.50;2.67;;;18.50;42.40;;;;;;5075244;28;20214;-71
2023/04/09 02:49:19;;;;;;;4.47;2.92;;;18.50;42.40;;;;;;5075227;28;20238;-71
2023/04/09 02:51:46;;;;;;;3.17;2.88;;;19.00;49.40;;;;;;5075086;28;20229;-71
2023/04/09 02:54:14;;;;;;;3.35;2.90;;;18.50;42.40;;;;;;5075138;28;20222;-71
2023/04/09 02:56:41;;;;;;;4.50;2.90;;;18.50;47.70;;;;;;5074746;28;20684;-71
2023/04/09 02:59:08;;;;;;;4.10;2.70;;;18.40;42.30;;;;;;5073472;28;20679;-71
2023/04/09 03:01:35;;;;;;;4.72;2.88;;;18.90;48.30;;;;;;5074646;28;20233;-71
2023/04/09 03:04:03;;;;;;;3.85;2.63;;;18.40;42.30;;;;;;5074579;28;20649;-71
2023/04/09 03:06:30;;;;;;;3.08;2.45;;;18.40;42.40;;;;;;5074939;28;20280;-71
2023/04/09 03:08:57;;;;;;;4.47;2.70;;;18.50;42.40;;;;;;5074913;28;20599;-71
2023/04/09 03:11:25;;;;;;;3.92;2.65;;;18.40;42.30;;;;;;5073931;28;20530;-71
2023/04/09 03:13:52;;;;;;;4.80;2.90;;;18.40;42.40;;;;;;5074754;28;20329;-71
2023/04/09 03:16:19;;;;;;;3.95;2.60;;;18.40;42.30;;;;;;5074411;28;20609;-71
2023/04/09 03:18:46;;;;;;;4.82;2.90;;;18.40;42.30;;;;;;5074519;28;20262;-71
2023/04/09 03:21:13;;;;;;;5.25;2.90;;;18.40;42.30;;;;;;5074509;28;20270;-71
2023/04/09 03:23:40;;;;;;;4.57;3.08;;;18.40;42.30;;;;;;5074279;28;20719;-70
2023/04/09 03:26:07;;;;;;;3.30;2.90;;;18.40;42.30;;;;;;5073073;28;20226;-71
2023/04/09 03:28:36;;;;;;;3.30;2.60;;;18.40;42.30;;;;;;5074384;28;20249;-71
2023/04/09 03:31:03;;;;;;;4.68;2.75;;;18.40;42.30;;;;;;5074540;28;20419;-71
2023/04/09 03:33:30;;;;;;;2.95;2.65;;;18.40;42.30;;;;;;5055546;28;20251;-71
2023/04/09 03:35:56;;;;;;;4.10;2.88;;;18.40;42.30;;;;;;5074117;28;20229;-71
2023/04/09 03:38:23;;;;;;;3.03;2.60;;;18.40;42.30;;;;;;5074119;28;20273;-71
2023/04/09 03:40:51;;;;;;;3.33;2.60;;;18.40;42.30;;;;;;5073054;28;20222;-71
2023/04/09 03:43:18;;;;;;;4.45;3.00;;;18.40;42.30;;;;;;5074236;28;20276;-71
2023/04/09 03:45:46;;;;;;;5.20;3.05;;;18.40;42.30;;;;;;5073029;28;20222;-71
2023/04/09 03:48:13;;;;;;;3.45;2.45;;;18.40;42.30;;;;;;5076206;28;20683;-71
2023/04/09 03:50:41;;;;;;;4.28;2.90;;;18.40;42.30;;;;;;5082857;28;20240;-71
2023/04/09 03:53:08;;;;;;;4.45;3.30;;;18.40;42.30;;;;;;5083296;28;20257;-71
2023/04/09 03:55:35;;;;;;;3.83;2.80;;;18.30;42.20;;;;;;5094222;28;20228;-71
2023/04/09 03:58:02;;;;;;;4.25;2.70;;;18.40;42.30;;;;;;5079282;28;20700;-71
2023/04/09 04:00:29;;;;;;;4.75;2.78;;;18.30;42.20;;;;;;5073799;28;20218;-71
2023/04/09 04:02:57;;;;;;;4.60;2.63;;;18.40;42.30;;;;;;5073994;28;20645;-71
2023/04/09 04:05:25;;;;;;;4.85;2.80;;;18.30;42.20;;;;;;5073490;28;20661;-71
2023/04/09 04:07:53;;;;;;;4.47;2.90;;;18.30;42.20;;;;;;5072707;28;20223;-71
2023/04/09 04:10:20;;;;;;;4.15;2.80;;;18.40;42.30;;;;;;5055662;28;20187;-71
2023/04/09 04:12:47;;;;;;;4.38;2.88;;;18.30;42.20;;;;;;5073758;28;20222;-70
2023/04/09 04:15:14;;;;;;;4.28;2.88;;;18.30;42.20;;;;;;5073253;28;20653;-71
2023/04/09 04:17:42;;;;;;;4.13;2.88;;;18.30;42.10;;;;;;5073565;28;20583;-71
2023/04/09 04:20:11;;;;;;;3.63;2.67;;;18.30;42.10;;;;;;5073117;28;20245;-71
2023/04/09 04:22:38;;;;;;;3.83;3.40;;;18.40;42.20;;;;;;5073028;28;20246;-71
2023/04/09 04:25:06;;;;;;;3.85;2.90;;;18.30;42.10;;;;;;5071914;28;20703;-71
2023/04/09 04:27:33;;;;;;;5.05;3.20;;;18.30;42.10;;;;;;5073515;28;20245;-71
2023/04/09 04:30:00;;;;;;;6.28;3.25;;;18.20;42.10;;;;;;5073327;28;20234;-71
2023/04/09 04:32:28;;;;;;;4.43;2.97;;;18.30;42.10;;;;;;5072885;28;20222;-71
2023/04/09 04:34:55;;;;;;;3.72;2.83;;;18.20;42.10;;;;;;5071864;28;20194;-71
2023/04/09 04:37:23;;;;;;;4.43;2.97;;;18.30;42.10;;;;;;5073190;28;20215;-71
2023/04/09 04:39:50;;;;;;;4.32;2.90;;;18.30;42.10;;;;;;5072949;28;20257;-71
2023/04/09 04:42:18;;;;;;;3.65;2.72;;;18.20;42.00;;;;;;5073174;28;20280;-71
2023/04/09 04:44:45;;;;;;;4.18;3.03;;;18.20;42.10;;;;;;5073071;28;20214;-71
2023/04/09 04:47:12;;;;;;;3.78;2.95;;;18.30;42.10;;;;;;5071396;28;20254;-71
2023/04/09 04:49:39;;;;;;;4.00;3.05;;;18.20;42.00;;;;;;5072866;28;20215;-71
2023/04/09 04:52:06;;;;;;;5.03;3.20;;;18.30;42.10;;;;;;5072900;28;20253;-71
2023/04/09 04:54:35;;;;;;;4.55;3.45;;;18.20;42.00;;;;;;5071385;28;20684;-71
2023/04/09 04:57:02;;;;;;;4.00;3.25;;;18.30;42.10;;;;;;5072782;28;20253;-71
2023/04/09 04:59:29;;;;;;;4.20;3.40;;;18.30;42.10;;;;;;5072305;28;20664;-71
2023/04/09 05:01:56;;;;;;;3.95;3.00;;;18.30;42.10;;;;;;5072746;28;20226;-71
2023/04/09 05:04:23;;;;;;;4.57;3.15;;;18.30;42.10;;;;;;5072409;28;20661;-71
2023/04/09 05:06:50;;;;;;;5.35;3.42;;;18.20;42.00;;;;;;5072408;28;20191;-71
2023/04/09 05:09:17;;;;;;;4.88;3.25;;;18.20;42.00;;;;;;5072243;28;20649;-71
2023/04/09 05:11:45;;;;;;;4.53;3.17;;;18.30;42.10;;;;;;5072581;28;20195;-71
2023/04/09 05:14:12;;;;;;;4.30;2.80;;;18.30;42.10;;;;;;5072600;28;20218;-71
2023/04/09 05:16:39;;;;;;;4.43;3.10;;;18.20;47.30;;;;;;5072504;28;20233;-71
2023/04/09 05:19:06;;;;;;;3.67;3.10;;;18.20;42.60;;;;;;5072728;28;20325;-71
2023/04/09 05:21:33;;;;;;;5.15;3.30;;;18.20;42.00;;;;;;5072423;28;20234;-71
2023/04/09 05:24:00;;;;;;;4.15;3.15;;;18.20;42.00;;;;;;5072419;28;20263;-71
2023/04/09 05:26:27;;;;;;;3.83;3.13;;;18.30;42.10;;;;;;5072068;28;20230;-71
2023/04/09 05:28:56;;;;;;;4.72;3.75;;;18.20;42.00;;;;;;5072264;28;20771;-71
2023/04/09 05:31:23;;;;;;;3.58;2.90;;;18.30;42.10;;;;;;5072413;28;20193;-71
2023/04/09 05:33:51;;;;;;;4.95;3.10;;;18.20;42.00;;;;;;5072121;28;20250;-71
2023/04/09 05:36:19;;;;;;;3.20;2.90;;;18.20;42.00;;;;;;5072367;28;20395;-71
2023/04/09 05:38:47;;;;;;;4.15;3.65;;;18.20;42.00;;;;;;5072331;28;20684;-71
2023/04/09 05:41:14;;;;;;;4.82;3.30;;;18.20;42.00;;;;;;5071982;28;20229;-71
2023/04/09 05:43:41;;;;;;;5.22;3.50;;;18.20;42.00;;;;;;5072428;28;20219;-71
2023/04/09 05:46:10;;;;;;;5.10;3.50;;;18.20;42.00;;;;;;5072228;28;20265;-71
2023/04/09 05:48:37;;;;;;;5.13;3.05;;;18.20;41.90;;;;;;5072438;28;20257;-70
2023/04/09 05:51:04;;;;;;;4.20;3.05;;;18.20;41.90;;;;;;5070728;28;20226;-71
2023/04/09 05:53:32;;;;;;;4.45;3.30;;;18.20;41.90;;;;;;5072226;28;20261;-71
2023/04/09 05:55:59;;;;;;;4.47;3.30;;;18.20;42.00;;;;;;5070992;28;20218;-71
2023/04/09 05:58:28;;;;;;;4.15;3.30;;;18.20;41.90;;;;;;5071718;28;20226;-71
2023/04/09 06:00:55;;;;;;;3.63;3.13;;;18.20;42.00;;;;;;5072136;28;20187;-71
2023/04/09 06:03:23;;;;;;;5.35;3.50;;;18.10;41.90;;;;;;5072235;28;20218;-71
2023/04/09 06:05:50;;;;;;;5.63;3.33;;;18.20;41.90;;;;;;5071779;28;20187;-70
2023/04/09 06:08:17;;;;;;;4.93;3.30;;;18.10;41.80;;;;;;5071821;28;20253;-71
2023/04/09 06:10:44;;;;;;;3.67;3.05;;;18.20;41.90;;;;;;5071931;28;20234;-71
2023/04/09 06:13:11;;;;;;;4.60;3.20;;;18.20;41.90;;;;;;5071851;28;20683;-71
2023/04/09 06:15:39;;;;;;;3.92;3.20;;;18.10;41.80;;;;;;5071584;28;20229;-71
2023/04/09 06:18:06;;;;;;;5.95;3.20;;;18.10;41.80;;;;;;5071735;28;20223;-71
2023/04/09 06:20:35;;;;;;;4.10;3.28;;;18.10;41.80;;;;;;5070551;28;20214;-71
2023/04/09 06:23:01;;;;;;;4.72;3.35;;;18.10;41.80;;;;;;5071929;28;20272;-71
2023/04/09 06:25:28;;;;;;;4.03;3.40;;;18.60;50.30;;;;;;5071562;28;20258;-71
2023/04/09 06:27:55;;;;;;;3.95;3.10;;;18.20;41.90;;;;;;5071774;28;20214;-71
2023/04/09 06:30:22;;;;;;;4.90;3.22;;;18.10;41.90;;;;;;5071760;28;20230;-71
2023/04/09 06:32:50;;;;;;;5.78;3.72;;;18.00;41.80;;;;;;5071794;28;20666;-71
2023/04/09 06:35:17;;;;;;;4.53;3.13;;;18.10;41.80;;;;;;5070561;28;20225;-71
2023/04/09 06:37:45;;;;;;;3.85;3.47;;;18.10;41.80;;;;;;5071540;28;20910;-71
2023/04/09 06:40:13;;;;;;;4.28;3.17;;;18.10;42.50;;;;;;5071352;28;20257;-71
2023/04/09 06:42:40;;;;;;;3.75;3.35;;;18.10;41.80;;;;;;5071335;28;20253;-71
2023/04/09 06:45:08;;;;;;;3.83;3.40;;;18.10;41.80;;;;;;5072211;28;20256;-71
2023/04/09 06:47:35;;;;;;;3.78;2.75;;;18.10;41.80;;;;;;5075255;28;20272;-71
2023/04/09 06:50:02;;;;;;;3.58;3.05;;;18.10;41.80;;;;;;5074869;28;20234;-71
2023/04/09 06:52:29;;;;;;;4.95;3.28;;;18.10;41.80;;;;;;5074916;28;20253;-71
2023/04/09 06:54:58;;;;;;;4.05;3.13;;;18.10;41.80;;;;;;5074925;28;20282;-71
2023/04/09 06:57:26;;;;;;;4.38;3.15;;;18.10;41.80;;;;;;5074798;28;20250;-71
2023/04/09 06:59:53;;;;;;;4.93;3.28;;;18.10;41.80;;;;;;5073265;28;20268;-71
2023/04/09 07:02:20;;;;;;;3.33;2.92;;;18.10;41.80;;;;;;5074977;28;20254;-71
2023/04/09 07:04:47;;;;;;;3.78;2.90;;;18.10;41.80;;;;;;5074708;28;20649;-71
2023/04/09 07:07:14;;;;;;;3.53;3.22;;;18.10;41.80;;;;;;5074953;28;20194;-71
2023/04/09 07:09:41;;;;;;;3.55;2.90;;;18.10;41.80;;;;;;5074614;28;20218;-71
2023/04/09 07:12:09;;;;;;;3.17;2.58;;;18.10;41.80;;;;;;5074941;28;20187;-71
2023/04/09 07:14:36;;;;;;;3.65;2.83;;;18.10;41.80;;;;;;5074791;28;20186;-71
2023/04/09 07:17:03;;;;;;;4.43;3.00;;;18.00;41.70;;;;;;5074714;28;20264;-71
2023/04/09 07:19:30;;;;;;;4.35;2.72;;;18.10;41.80;;;;;;5074323;28;20254;-71
2023/04/09 07:21:57;;;;;;;3.65;3.03;;;18.10;41.80;;;;;;5074702;28;20557;-71
2023/04/09 07:24:24;;;;;;;3.33;2.75;;;18.10;41.80;;;;;;5074122;28;20242;-71
2023/04/09 07:26:52;;;;;;;4.18;2.90;;;18.10;41.80;;;;;;5074321;28;20238;-71
2023/04/09 07:29:21;;;;;;;4.82;2.72;;;18.20;41.90;;;;;;5074688;28;20225;-71
2023/04/09 07:31:48;;;;;;;4.10;2.95;;;18.00;41.80;;;;;;5074511;28;20252;-71
2023/04/09 07:34:15;;;;;;;6.35;3.05;;;18.10;41.80;;;;;;5074561;28;20250;-71
2023/04/09 07:36:42;;;;;;;3.85;2.97;;;18.10;41.80;;;;;;5074188;28;20680;-71
2023/04/09 07:39:09;;;;;;;3.78;3.17;;;18.10;41.80;;;;;;5074411;28;20273;-71
2023/04/09 07:41:36;;;;;;;5.20;2.80;;;18.10;41.80;;;;;;5074293;28;20563;-71
2023/04/09 07:44:05;;;;;;;3.38;2.80;;;18.00;41.70;;;;;;5074434;28;20380;-71
2023/04/09 07:46:33;;;;;;;3.92;2.97;;;18.00;41.80;;;;;;5074205;28;20194;-71
2023/04/09 07:49:00;;;;;;;3.53;2.80;;;18.10;41.90;;;;;;5074215;28;20218;-71
2023/04/09 07:51:27;;;;;;;3.20;2.90;;;18.10;41.90;;;;;;5072896;28;20230;-71
2023/04/09 07:53:54;;;;;;;3.55;2.90;;;18.10;41.90;;;;;;5074269;28;20218;-71
2023/04/09 07:56:21;;;;;;;3.80;2.40;;;18.00;41.80;;;;;;5073702;28;20237;-71
2023/04/09 07:58:49;;;;;;;4.05;2.53;;;18.00;41.80;;;;;;5073647;28;20221;-71
2023/04/09 08:01:16;;;;;;;3.33;3.03;;;18.00;41.80;;;;;;5073858;28;20191;-71
2023/04/09 08:03:45;;;;;;;3.22;2.60;;;18.00;41.80;;;;;;5073968;28;20280;-71
2023/04/09 08:06:12;;;;;;;3.40;3.10;;;18.10;41.90;;;;;;5073660;28;20222;-71
2023/04/09 08:08:39;;;;;;;3.90;2.92;;;18.10;41.90;;;;;;5074103;28;20215;-71
2023/04/09 08:11:06;;;;;;;4.10;2.90;;;18.10;41.90;;;;;;5072208;28;20700;-71
2023/04/09 08:13:33;;;;;;;3.80;2.47;;;18.00;41.80;;;;;;5073801;28;20217;-71
2023/04/09 08:16:01;;;;;;;3.03;2.53;;;18.00;42.50;;;;;;5073641;28;20222;-71
2023/04/09 08:18:28;;;;;;;3.47;3.03;;;18.10;41.40;;;;;;5073442;28;20231;-71
2023/04/09 08:20:57;;;;;;;3.00;2.40;;;18.00;41.80;;;;;;5073374;28;20300;-71
2023/04/09 08:23:24;;;;;;;2.95;2.50;;;18.80;66.20;;;;;;5073637;28;20253;-71
2023/04/09 08:25:51;;;;;;;2.97;2.70;;;18.00;41.90;;;;;;5073183;28;20709;-70
2023/04/09 08:28:18;;;;;;;5.05;2.70;;;18.10;42.00;;;;;;5073609;28;20250;-71
2023/04/09 08:30:46;;;;;;;3.72;2.85;;;18.00;41.90;;;;;;5072967;28;20553;-71
2023/04/09 08:33:14;;;;;;;2.80;2.40;;;18.00;41.90;;;;;;5073300;28;20233;-71
2023/04/09 08:35:41;;;;;;;3.22;2.53;;;18.10;42.00;;;;;;5073000;28;20691;-71
2023/04/09 08:38:10;;;;;;;3.17;2.60;;;17.90;41.80;;;;;;5072866;28;20214;-71
2023/04/09 08:40:37;;;;;;;4.10;2.50;;;18.00;41.90;;;;;;5073092;28;20280;-71
2023/04/09 08:43:06;;;;;;;2.58;2.38;;;18.00;41.90;;;;;;5073154;28;20246;-71
2023/04/09 08:45:34;;;;;;;3.85;2.67;;;18.00;41.90;;;;;;5055148;28;20245;-71
2023/04/09 08:48:03;;;;;;;3.22;2.60;;;18.00;42.00;;;;;;5073380;28;20269;-71
2023/04/09 08:50:31;;;;;;;3.42;2.38;;;18.00;41.90;;;;;;5072581;28;20588;-71
2023/04/09 08:52:59;;;;;;;4.03;2.50;;;18.10;42.00;;;;;;5072890;28;20215;-71
2023/04/09 08:55:27;;;;;;;3.70;2.65;;;18.00;41.90;;;;;;5072615;28;20191;-71
2023/04/09 08:57:55;;;;;;;3.88;2.40;;;18.00;41.90;;;;;;5072862;28;20258;-71
2023/04/09 09:00:22;;;;;;;3.33;2.50;;;18.00;41.90;;;;;;5072662;28;20231;-71
2023/04/09 09:03:07;;;;;;;3.55;2.50;;;18.00;42.00;;;;;;5072510;28;20645;-71
2023/04/09 09:05:38;;;;;;;3.45;2.53;;;18.00;42.00;;;;;;5072806;28;20187;-71
2023/04/09 09:08:07;;;;;;;4.38;2.58;;;18.00;42.00;;;;;;5072117;28;20645;-71
2023/04/09 09:10:43;;;;;;;5.22;2.88;;;18.10;42.10;;;;;;5072249;28;20668;-71
2023/04/09 09:13:21;;;;;;;3.10;2.55;;;18.00;42.00;;;;;;5072427;28;20300;-71
2023/04/09 09:15:51;;;;;;;3.85;2.35;;;18.00;42.00;;;;;;5072575;28;20241;-71
2023/04/09 09:18:19;;;;;;;3.47;2.70;;;18.10;42.10;;;;;;5072360;28;20700;-71
2023/04/09 09:20:46;;;;;;;3.50;2.40;;;18.00;42.40;;;;;;5072409;28;20491;-71
2023/04/09 09:23:13;;;;;;;2.88;2.50;;;18.00;42.00;;;;;;5072576;28;20295;-71
2023/04/09 09:25:42;;;;;;;3.55;2.47;;;18.00;42.10;;;;;;5072204;28;20258;-71
2023/04/09 09:28:10;;;;;;;3.45;2.60;;;18.00;42.10;;;;;;5072571;28;20264;-70
2023/04/09 09:30:40;;;;;;;3.72;2.67;;;18.00;42.70;;;;;;5037486;28;20206;-71
2023/04/09 09:33:08;;;;;;;2.90;2.60;;;18.00;42.10;;;;;;5072239;28;20215;-71
2023/04/09 09:35:49;;;;;;;3.15;2.55;;;18.00;42.10;;;;;;5072100;28;20214;-71
2023/04/09 09:38:17;;;;;;;2.58;2.30;;;18.00;42.10;;;;;;5071179;28;20603;-71
2023/04/09 09:40:46;;;;;;;3.70;2.65;;;18.00;42.10;;;;;;5072164;28;20659;-71
2023/04/09 09:43:13;;;;;;;3.45;2.35;;;18.00;42.10;;;;;;5072039;28;20245;-71
2023/04/09 09:45:42;;;;;;;3.67;2.60;;;18.00;42.10;;;;;;5070853;28;20209;-71
2023/04/09 09:48:11;;;;;;;3.85;2.78;;;18.00;42.10;;;;;;5072252;28;20215;-71
2023/04/09 09:50:40;;;;;;;4.75;2.63;;;18.00;42.10;;;;;;5072105;28;20197;-71
2023/04/09 09:53:08;;;;;;;3.22;2.40;;;18.10;42.30;;;;;;5072271;28;20215;-71
2023/04/09 09:55:38;;;;;;;3.83;2.80;;;18.00;42.10;;;;;;5072228;28;20225;-71
2023/04/09 09:58:14;;;;;;;3.03;2.72;;;18.10;42.20;;;;;;5071928;28;20257;-71
2023/04/09 10:00:42;;;;;;;3.85;3.00;;;18.00;42.10;;;;;;5071661;28;20343;-71
2023/04/09 10:03:14;;;;;;;2.88;2.38;;;18.00;42.10;;;;;;5071850;28;20264;-71
2023/04/09 10:05:42;;;;;;;4.57;3.00;;;18.00;42.20;;;;;;5072140;28;20637;-71
2023/04/09 10:08:10;;;;;;;2.95;2.53;;;18.00;42.20;;;;;;5072131;28;20246;-71
2023/04/09 10:10:41;;;;;;;5.80;2.88;;;18.10;42.30;;;;;;5071976;28;20233;-71
2023/04/09 10:13:16;;;;;;;4.47;2.63;;;18.00;42.20;;;;;;5071748;28;20723;-71
2023/04/09 10:15:44;;;;;;;3.05;2.60;;;18.00;42.20;;;;;;5072228;28;20187;-71
2023/04/09 10:18:12;;;;;;;3.45;2.67;;;18.00;42.20;;;;;;5070876;28;20218;-71
2023/04/09 10:20:43;;;;;;;5.53;3.08;;;18.00;42.20;;;;;;5074576;28;20708;-71
2023/04/09 10:23:20;;;;;;;3.95;2.78;;;18.00;42.20;;;;;;5075500;28;20313;-71
2023/04/09 10:25:47;;;;;;;3.70;2.80;;;18.00;42.30;;;;;;5075588;28;20269;-71
2023/04/09 10:28:18;;;;;;;3.95;2.80;;;18.10;42.40;;;;;;5075776;28;20245;-71
2023/04/09 10:30:45;;;;;;;6.38;3.63;;;18.00;42.30;;;;;;5075613;28;20675;-71
2023/04/09 10:33:14;;;;;;;3.25;2.67;;;18.00;42.30;;;;;;5075332;28;20249;-71
2023/04/09 10:35:42;;;;;;;3.75;2.67;;;18.00;42.30;;;;;;5075542;28;20218;-71
2023/04/09 10:38:11;;;;;;;4.38;2.40;;;18.00;42.30;;;;;;5075547;28;20218;-71
2023/04/09 10:40:42;;;;;;;3.00;2.70;;;18.00;42.30;;;;;;5075391;28;20250;-71
2023/04/09 10:43:10;;;;;;;4.18;3.13;;;18.00;42.30;;;;;;5075510;28;20219;-71
2023/04/09 10:45:42;;;;;;;3.47;2.63;;;18.10;42.40;;;;;;5075026;28;20573;-71
2023/04/09 10:48:13;;;;;;;3.28;2.88;;;18.00;42.30;;;;;;5075021;28;20711;-71
2023/04/09 10:50:43;;;;;;;5.95;2.67;;;18.00;42.30;;;;;;5075150;28;20287;-71
2023/04/09 10:53:22;;;;;;;5.05;2.50;;;18.00;42.40;;;;;;5075282;28;20643;-71
2023/04/09 10:55:51;;;;;;;6.82;2.63;;;18.00;42.40;;;;;;5075226;28;20195;-71
2023/04/09 10:58:18;;;;;;;3.05;2.65;;;18.00;42.30;;;;;;5075086;28;20246;-71
2023/04/09 11:00:48;;;;;;;4.18;2.75;;;18.00;42.40;;;;;;5074684;28;20211;-71
2023/04/09 11:03:26;;;;;;;3.05;2.70;;;18.00;42.40;;;;;;5075177;28;20269;-71
2023/04/09 11:05:58;;;;;;;3.38;2.45;;;18.00;42.40;;;;;;5074760;28;20183;-70
2023/04/09 11:08:29;;;;;;;3.53;2.55;;;18.00;42.40;;;;;;5074992;28;20246;-71
2023/04/09 11:10:57;;;;;;;3.20;2.75;;;18.10;42.50;;;;;;5074857;28;20193;-71
2023/04/09 11:13:24;;;;;;;4.50;2.30;;;18.00;42.40;;;;;;5074976;28;20224;-71
2023/04/09 11:15:54;;;;;;;5.35;2.70;;;18.00;42.40;;;;;;5074796;28;20248;-71
2023/04/09 11:18:22;;;;;;;2.75;2.30;;;18.00;42.40;;;;;;5074778;28;20309;-70
2023/04/09 11:20:49;;;;;;;4.03;2.50;;;18.00;42.40;;;;;;5074568;28;20250;-71
2023/04/09 11:23:18;;;;;;;3.60;2.20;;;18.00;42.40;;;;;;5074402;28;20262;-71
2023/04/09 11:25:49;;;;;;;2.58;2.20;;;18.00;42.40;;;;;;5074457;28;20248;-71
2023/04/09 11:28:16;;;;;;;3.13;2.40;;;18.00;42.40;;;;;;5074544;28;20214;-71
2023/04/09 11:30:45;;;;;;;3.65;2.42;;;18.00;42.40;;;;;;5073819;28;20215;-71
2023/04/09 11:33:14;;;;;;;2.88;2.45;;;18.00;42.40;;;;;;5074483;28;20226;-71
2023/04/09 11:35:41;;;;;;;2.78;2.47;;;18.00;42.40;;;;;;5074456;28;20226;-71
2023/04/09 11:38:09;;;;;;;2.83;2.33;;;18.00;42.40;;;;;;5074372;28;20264;-71
2023/04/09 11:40:42;;;;;;;2.85;2.50;;;18.00;42.40;;;;;;5073898;28;20253;-71
2023/04/09 11:43:09;;;;;;;3.30;2.50;;;17.90;42.20;;;;;;5074334;28;20297;-71
2023/04/09 11:45:37;;;;;;;2.53;2.33;;;18.00;42.30;;;;;;5073974;28;20226;-71
2023/04/09 11:48:04;;;;;;;3.65;2.85;;;18.00;42.30;;;;;;5073928;28;20221;-71
2023/04/09 11:50:33;;;;;;;5.95;2.60;;;18.00;42.40;;;;;;5074047;28;20190;-71
2023/04/09 11:53:00;;;;;;;2.80;2.30;;;17.90;42.30;;;;;;5074119;28;20253;-71
2023/04/09 11:55:29;;;;;;;2.80;2.45;;;18.00;42.40;;;;;;5072999;28;20226;-71
2023/04/09 11:57:59;;;;;;;2.80;2.50;;;18.00;42.40;;;;;;5074024;28;20221;-71
2023/04/09 12:00:27;;;;;;;2.78;2.40;;;18.00;42.40;;;;;;5073746;28;20222;-71
2023/04/09 12:03:00;;;;;;;2.67;2.38;;;18.00;42.40;;;;;;5073867;28;20215;-71
2023/04/09 12:05:30;;;;;;;3.90;2.53;;;18.00;42.40;;;;;;5073642;28;20226;-71
2023/04/09 12:08:01;;;;;;;4.75;2.80;;;18.00;42.40;;;;;;5073459;28;20306;-71
2023/04/09 12:10:28;;;;;;;2.92;2.28;;;18.00;42.40;;;;;;5073653;28;20576;-71
2023/04/09 12:13:00;;;;;;;2.50;2.30;;;18.00;42.40;;;;;;5073661;28;20225;-71
2023/04/09 12:15:32;;;;;;;4.18;2.60;;;18.10;42.50;;;;;;5073712;28;20214;-71
2023/04/09 12:17:59;;;;;;;4.00;2.15;;;18.00;42.40;;;;;;5073627;28;20252;-71
2023/04/09 12:20:28;;;;;;;2.53;2.30;;;18.00;42.40;;;;;;5073116;28;20190;-71
2023/04/09 12:22:55;;;;;;;2.95;2.25;;;18.10;42.50;;;;;;5072364;28;21985;-71
2023/04/09 12:25:31;;;;;;;2.97;2.47;;;18.00;42.50;;;;;;5073128;28;20226;-71
2023/04/09 12:28:04;;;;;;;3.33;2.22;;;18.00;42.40;;;;;;5073549;28;20222;-71
2023/04/09 12:30:36;;;;;;;3.28;2.22;;;18.00;42.50;;;;;;5073129;28;20236;-71
2023/04/09 12:33:04;;;;;;;2.60;2.38;;;18.00;42.50;;;;;;5073169;28;20751;-71
2023/04/09 12:35:31;;;;;;;3.63;2.80;;;18.00;42.50;;;;;;5073244;28;20225;-71
2023/04/09 12:37:59;;;;;;;2.55;2.22;;;18.00;42.50;;;;;;5073188;28;20291;-71
2023/04/09 12:40:27;;;;;;;3.08;2.40;;;18.00;42.50;;;;;;5073099;28;20191;-71
2023/04/09 12:42:54;;;;;;;2.75;2.25;;;18.00;42.50;;;;;;5072174;28;20191;-71
2023/04/09 12:45:22;;;;;;;2.30;2.10;;;18.00;42.50;;;;;;5072792;28;20237;-71
2023/04/09 12:47:49;;;;;;;2.65;2.03;;;18.00;42.60;;;;;;5072944;28;20617;-71
2023/04/09 12:50:17;;;;;;;4.03;2.40;;;18.00;42.60;;;;;;5072713;28;20230;-71
2023/04/09 12:52:47;;;;;;;2.97;2.28;;;18.00;42.60;;;;;;5072877;28;20222;-71